Blanchard, Idaho
Current Conditions -  °F | °C
As of 8:55 AM on Saturday 22 Nov 2014 (Local Time) from KCOE Reporting Station
Clear Clear  
Wind Chill: 37°   Ceiling: Unl
Heat Index: 37°   Visibility: 10mi
Dew Point: 30°   Wind: 3mph
Humidity: 75%   Direction: 240°WSW
Pressure: 29.62"   Gusts: NA
Location:  48.02°N, 116.99°W
Report Text: KCOE 221655Z AUTO 24003KT 10SM CLR 03/M01 A2962 RMK AO1
Loading
Personal Weather Stations






























Interactive Weather Map New forecast layout! Learn more

10-Day Weather Forecast

Advertisements
Track Severe Weather on mobile